Time;durP1;ratioP1;P1;durP2;ratioP2;P2;SDS_P1;SDS_P2;PMS_P1;PMS_P2;Temp;Humidity;BMP_temperature;BMP_pressure;BME280_temperature;BME280_humidity;BME280_pressure;Samples;Min_cycle;Max_cycle;Signal;HPM_P1;HPM_P2
2022/04/04 00:09:32;;;;;;;0.40;0.30;;;;;;;;;;20182856;29;20067;-88
2022/04/04 00:19:34;;;;;;;0.30;0.20;;;;;;;;;;20199590;29;20071;-87
2022/04/04 00:29:37;;;;;;;1.00;0.47;;;;;;;;;;20198585;29;20061;-87
2022/04/04 00:39:39;;;;;;;0.30;0.30;;;;;;;;;;20181000;29;20057;-88
2022/04/04 00:49:40;;;;;;;0.38;0.20;;;;;;;;;;20180384;29;20064;-87
2022/04/04 00:59:43;;;;;;;0.28;0.20;;;;;;;;;;20180028;29;20049;-87
2022/04/04 01:09:45;;;;;;;0.47;0.32;;;;;;;;;;20195924;29;20059;-87
2022/04/04 01:19:47;;;;;;;0.57;0.28;;;;;;;;;;20178545;29;20093;-88
2022/04/04 01:29:48;;;;;;;1.17;0.32;;;;;;;;;;20178800;29;20385;-87
2022/04/04 01:39:50;;;;;;;0.38;0.38;;;;;;;;;;20178051;29;20045;-87
2022/04/04 01:49:53;;;;;;;0.40;0.30;;;;;;;;;;20194297;29;20052;-87
2022/04/04 01:59:54;;;;;;;0.52;0.40;;;;;;;;;;20193623;29;20052;-87
2022/04/04 02:09:58;;;;;;;0.55;0.40;;;;;;;;;;20176438;29;20060;-86
2022/04/04 02:20:00;;;;;;;0.93;0.47;;;;;;;;;;20189294;29;20061;-85
2022/04/04 02:30:02;;;;;;;0.80;0.50;;;;;;;;;;20176954;29;20492;-86
2022/04/04 02:40:05;;;;;;;0.30;0.30;;;;;;;;;;20185400;29;20128;-86
2022/04/04 02:50:08;;;;;;;0.70;0.38;;;;;;;;;;20182915;29;20056;-85
2022/04/04 03:00:10;;;;;;;0.43;0.43;;;;;;;;;;20181517;29;20045;-85
2022/04/04 03:10:12;;;;;;;2.20;0.40;;;;;;;;;;20181181;29;20140;-84
2022/04/04 03:20:15;;;;;;;0.40;0.40;;;;;;;;;;20183577;29;20060;-84
2022/04/04 03:30:21;;;;;;;2.40;0.60;;;;;;;;;;20198555;29;20399;-85
2022/04/04 03:40:23;;;;;;;0.63;0.40;;;;;;;;;;20179097;29;20060;-84
2022/04/04 03:50:26;;;;;;;0.52;0.30;;;;;;;;;;20177591;29;20059;-84
2022/04/04 04:00:28;;;;;;;1.75;0.40;;;;;;;;;;20193225;29;20060;-84
2022/04/04 04:10:29;;;;;;;0.63;0.50;;;;;;;;;;20176853;29;20223;-84
2022/04/04 04:20:35;;;;;;;1.80;0.47;;;;;;;;;;20175394;29;20057;-84
2022/04/04 04:30:37;;;;;;;0.73;0.38;;;;;;;;;;20175784;29;20419;-84
2022/04/04 04:40:38;;;;;;;1.48;0.65;;;;;;;;;;20190150;29;20096;-84
2022/04/04 04:50:40;;;;;;;0.77;0.57;;;;;;;;;;20173697;29;20056;-85
2022/04/04 05:00:42;;;;;;;0.70;0.40;;;;;;;;;;20173878;29;20122;-84
2022/04/04 05:10:44;;;;;;;0.60;0.43;;;;;;;;;;20157561;29;20064;-85
2022/04/04 05:20:46;;;;;;;2.28;0.57;;;;;;;;;;20172190;29;20065;-84
2022/04/04 05:30:48;;;;;;;1.25;0.60;;;;;;;;;;20170455;29;20375;-85
2022/04/04 05:40:50;;;;;;;3.60;0.60;;;;;;;;;;20170059;29;20045;-85
2022/04/04 05:50:51;;;;;;;0.80;0.30;;;;;;;;;;20170306;29;20056;-85
2022/04/04 06:00:53;;;;;;;1.63;0.60;;;;;;;;;;20171078;29;20186;-83
2022/04/04 06:10:55;;;;;;;0.52;0.32;;;;;;;;;;20168756;29;20065;-86
2022/04/04 06:20:57;;;;;;;1.38;0.60;;;;;;;;;;20199661;29;20060;-83
2022/04/04 06:30:59;;;;;;;1.08;0.50;;;;;;;;;;20200077;29;20057;-85
2022/04/04 06:41:02;;;;;;;1.35;0.63;;;;;;;;;;20182277;29;20053;-83
2022/04/04 06:51:05;;;;;;;1.25;0.50;;;;;;;;;;20181529;29;20053;-86
2022/04/04 07:01:07;;;;;;;0.70;0.70;;;;;;;;;;20180859;29;20045;-84
2022/04/04 07:11:10;;;;;;;1.10;0.70;;;;;;;;;;20179782;29;20067;-85
2022/04/04 07:21:12;;;;;;;2.83;0.73;;;;;;;;;;20163862;29;20061;-85
2022/04/04 07:31:14;;;;;;;1.08;0.60;;;;;;;;;;20195301;29;20060;-85
2022/04/04 07:41:16;;;;;;;1.45;0.65;;;;;;;;;;20177756;29;20102;-85
2022/04/04 07:51:19;;;;;;;0.50;0.50;;;;;;;;;;20161842;29;20419;-83
2022/04/04 08:01:21;;;;;;;0.93;0.60;;;;;;;;;;20161442;29;20049;-83
2022/04/04 08:11:27;;;;;;;1.52;0.60;;;;;;;;;;20161630;29;20571;-85
2022/04/04 08:21:29;;;;;;;1.15;0.80;;;;;;;;;;20191260;29;20057;-86
2022/04/04 08:31:31;;;;;;;1.38;0.90;;;;;;;;;;20190267;29;20457;-84
2022/04/04 08:41:34;;;;;;;1.23;0.77;;;;;;;;;;20158214;29;20056;-85
2022/04/04 08:51:36;;;;;;;1.05;0.60;;;;;;;;;;20189379;29;20100;-86
2022/04/04 09:01:38;;;;;;;1.08;0.55;;;;;;;;;;20188860;29;20104;-85
2022/04/04 09:11:49;;;;;;;0.90;0.60;;;;;;;;;;20156329;29;20064;-86
2022/04/04 09:21:51;;;;;;;0.45;0.45;;;;;;;;;;20156360;29;20399;-85
2022/04/04 09:32:14;;;;;;;0.70;0.60;;;;;;;;;;20171431;29;20045;-87
2022/04/04 09:42:19;;;;;;;1.52;0.50;;;;;;;;;;20181721;29;20047;-87
2022/04/04 09:52:21;;;;;;;1.00;0.90;;;;;;;;;;20202910;29;20511;-87
2022/04/04 10:02:24;;;;;;;0.40;0.40;;;;;;;;;;20185212;29;20571;-86
2022/04/04 10:12:26;;;;;;;0.45;0.40;;;;;;;;;;20184364;29;20116;-85
2022/04/04 10:22:28;;;;;;;1.27;0.50;;;;;;;;;;20164353;29;20072;-87
2022/04/04 10:32:31;;;;;;;0.30;0.30;;;;;;;;;;20198318;29;20085;-88
2022/04/04 10:42:36;;;;;;;0.90;0.35;;;;;;;;;;20198826;29;20172;-85
2022/04/04 10:52:39;;;;;;;0.63;0.37;;;;;;;;;;20197960;29;20057;-85
2022/04/04 11:02:44;;;;;;;1.02;0.30;;;;;;;;;;20197451;29;20084;-84
2022/04/04 11:13:04;;;;;;;0.70;0.30;;;;;;;;;;20195615;29;20136;-84
2022/04/04 11:23:10;;;;;;;1.10;0.40;;;;;;;;;;20194735;29;20402;-84
2022/04/04 11:33:22;;;;;;;0.55;0.30;;;;;;;;;;20195042;29;20180;-85
2022/04/04 11:43:27;;;;;;;0.30;0.30;;;;;;;;;;20180017;29;20049;-84
2022/04/04 11:53:36;;;;;;;0.55;0.30;;;;;;;;;;20193871;29;20049;-84
2022/04/04 12:03:43;;;;;;;0.35;0.22;;;;;;;;;;20192552;29;20064;-84
2022/04/04 12:13:56;;;;;;;0.25;0.22;;;;;;;;;;20190832;29;20491;-85
2022/04/04 12:34:21;;;;;;;0.55;0.20;;;;;;;;;;20189491;29;20097;-84
2022/04/04 12:44:26;;;;;;;0.25;0.25;;;;;;;;;;20189988;29;20057;-85
2022/04/04 12:54:30;;;;;;;0.60;0.30;;;;;;;;;;20176290;29;20167;-83
2022/04/04 13:04:33;;;;;;;0.40;0.30;;;;;;;;;;20172196;29;20309;-84
2022/04/04 13:14:46;;;;;;;0.30;0.30;;;;;;;;;;20188245;29;20052;-85
2022/04/04 13:24:48;;;;;;;0.20;0.20;;;;;;;;;;20187794;29;20807;-84
2022/04/04 13:34:50;;;;;;;0.10;0.10;;;;;;;;;;20170584;29;20504;-84
2022/04/04 13:44:53;;;;;;;0.20;0.20;;;;;;;;;;20187049;29;20067;-84
2022/04/04 13:54:55;;;;;;;0.25;0.20;;;;;;;;;;20186549;29;20063;-84
2022/04/04 14:04:56;;;;;;;0.57;0.20;;;;;;;;;;20187518;29;20079;-83
2022/04/04 14:14:58;;;;;;;0.20;0.20;;;;;;;;;;20154274;29;20124;-84
2022/04/04 14:25:00;;;;;;;0.52;0.22;;;;;;;;;;20112896;29;20068;-84
2022/04/04 14:35:02;;;;;;;0.20;0.20;;;;;;;;;;20121250;29;20057;-84
2022/04/04 14:45:05;;;;;;;0.20;0.20;;;;;;;;;;20120856;29;20428;-84
2022/04/04 14:55:07;;;;;;;0.32;0.20;;;;;;;;;;20120061;29;20057;-84
2022/04/04 15:05:09;;;;;;;0.95;0.20;;;;;;;;;;20119551;29;20423;-84
2022/04/04 15:15:11;;;;;;;0.10;0.10;;;;;;;;;;20120197;29;20049;-85
2022/04/04 15:25:13;;;;;;;0.10;0.10;;;;;;;;;;20102427;29;20092;-86
2022/04/04 15:35:15;;;;;;;0.20;0.20;;;;;;;;;;20115663;29;20046;-85
2022/04/04 15:45:19;;;;;;;0.47;0.30;;;;;;;;;;20111849;29;20050;-87
2022/04/04 15:55:21;;;;;;;0.20;0.20;;;;;;;;;;20116996;29;20081;-87
2022/04/04 16:05:23;;;;;;;0.80;0.30;;;;;;;;;;20114772;29;20045;-86
2022/04/04 16:15:24;;;;;;;0.20;0.20;;;;;;;;;;20115360;29;20048;-87
2022/04/04 16:25:26;;;;;;;0.35;0.20;;;;;;;;;;20114454;29;20118;-87
2022/04/04 16:35:28;;;;;;;0.52;0.20;;;;;;;;;;20113011;29;20416;-87
2022/04/04 16:45:30;;;;;;;1.13;0.38;;;;;;;;;;20111491;29;20068;-87
2022/04/04 16:55:32;;;;;;;0.47;0.20;;;;;;;;;;20112074;29;20049;-87
2022/04/04 17:05:33;;;;;;;0.43;0.17;;;;;;;;;;20110817;29;20069;-87
2022/04/04 17:15:35;;;;;;;0.88;0.38;;;;;;;;;;20018496;29;20516;-87
2022/04/04 17:25:38;;;;;;;0.32;0.20;;;;;;;;;;20073566;29;20069;-89
2022/04/04 17:35:40;;;;;;;1.40;0.30;;;;;;;;;;20109105;29;20049;-86
2022/04/04 17:45:42;;;;;;;0.93;0.30;;;;;;;;;;20108930;29;20049;-88
2022/04/04 17:55:44;;;;;;;2.00;0.55;;;;;;;;;;20093430;29;20084;-88
2022/04/04 18:05:47;;;;;;;1.52;0.50;;;;;;;;;;20123956;29;20064;-87
2022/04/04 18:15:49;;;;;;;2.47;0.47;;;;;;;;;;20122581;29;20050;-88
2022/04/04 18:25:51;;;;;;;0.75;0.30;;;;;;;;;;20169991;29;20065;-90
2022/04/04 18:35:52;;;;;;;0.65;0.30;;;;;;;;;;20199515;29;20456;-89
2022/04/04 18:45:55;;;;;;;2.00;0.60;;;;;;;;;;20182704;29;20060;-90
2022/04/04 18:55:57;;;;;;;1.20;0.50;;;;;;;;;;20184620;29;20053;-86
2022/04/04 19:05:58;;;;;;;1.08;0.40;;;;;;;;;;20153165;29;20045;-85
2022/04/04 19:16:00;;;;;;;1.05;0.30;;;;;;;;;;20179900;29;20041;-86
2022/04/04 19:26:03;;;;;;;0.80;0.38;;;;;;;;;;20197667;29;20072;-85
2022/04/04 19:36:05;;;;;;;2.00;0.40;;;;;;;;;;20179374;29;20040;-85
2022/04/04 19:46:09;;;;;;;1.10;0.50;;;;;;;;;;20178465;29;20060;-85
2022/04/04 19:56:11;;;;;;;1.48;0.40;;;;;;;;;;20193465;29;20480;-85
2022/04/04 20:06:12;;;;;;;1.13;0.32;;;;;;;;;;20176343;29;20109;-86
2022/04/04 20:16:14;;;;;;;1.80;0.40;;;;;;;;;;20175550;29;20424;-86
2022/04/04 20:26:16;;;;;;;1.65;0.50;;;;;;;;;;20190853;29;20052;-86
2022/04/04 20:36:19;;;;;;;2.13;0.65;;;;;;;;;;20159024;29;20059;-85
2022/04/04 20:46:21;;;;;;;0.70;0.40;;;;;;;;;;20174131;29;20508;-85
2022/04/04 20:56:24;;;;;;;1.48;0.50;;;;;;;;;;20189256;29;20057;-87
2022/04/04 21:06:26;;;;;;;1.50;0.47;;;;;;;;;;20172345;29;20072;-86
2022/04/04 21:16:28;;;;;;;0.85;0.40;;;;;;;;;;20166886;29;20508;-86
2022/04/04 21:26:30;;;;;;;0.30;0.20;;;;;;;;;;20182608;29;20052;-86
2022/04/04 21:36:31;;;;;;;1.30;1.02;;;;;;;;;;20165195;29;20052;-87
2022/04/04 21:46:33;;;;;;;0.52;0.25;;;;;;;;;;20164097;29;20093;-86
2022/04/04 21:56:35;;;;;;;1.20;0.50;;;;;;;;;;20142820;29;20470;-88
2022/04/04 22:06:37;;;;;;;1.77;0.45;;;;;;;;;;20149023;29;20057;-87
2022/04/04 22:16:39;;;;;;;0.77;0.30;;;;;;;;;;20147825;29;20151;-86
2022/04/04 22:26:41;;;;;;;0.88;0.50;;;;;;;;;;20146125;29;20486;-88
2022/04/04 22:36:42;;;;;;;1.67;0.60;;;;;;;;;;20146905;29;20101;-87
2022/04/04 22:46:44;;;;;;;1.15;0.40;;;;;;;;;;20168668;29;20052;-87
2022/04/04 22:56:46;;;;;;;1.02;0.32;;;;;;;;;;20160393;29;20045;-86
2022/04/04 23:06:48;;;;;;;1.33;0.50;;;;;;;;;;20160861;29;20052;-86
2022/04/04 23:16:50;;;;;;;1.35;0.30;;;;;;;;;;20173571;29;20064;-87
2022/04/04 23:26:51;;;;;;;1.02;0.30;;;;;;;;;;20157562;29;20057;-87
2022/04/04 23:36:53;;;;;;;1.13;0.45;;;;;;;;;;20169478;29;20602;-86
2022/04/04 23:46:55;;;;;;;1.17;0.32;;;;;;;;;;20171878;29;20052;-86
2022/04/04 23:56:57;;;;;;;0.75;0.30;;;;;;;;;;20186120;29;20056;-85
